sensor_id;sensor_type;location;lat;lon;timestamp;pressure;altitude;pressure_sealevel;temperature;humidity
42633;BME280;28261;53.304;-6.284;2023-02-03T00:00:13;102051.50;;;9.66;100.00
42633;BME280;28261;53.304;-6.284;2023-02-03T00:02:19;102054.16;;;9.66;100.00
42633;BME280;28261;53.304;-6.284;2023-02-03T00:04:24;102058.53;;;9.67;100.00
42633;BME280;28261;53.304;-6.284;2023-02-03T00:06:30;102070.03;;;9.66;100.00
42633;BME280;28261;53.304;-6.284;2023-02-03T00:08:42;102065.69;;;9.65;100.00
42633;BME280;28261;53.304;-6.284;2023-02-03T00:10:52;102071.84;;;9.65;100.00
42633;BME280;28261;53.304;-6.284;2023-02-03T00:13:01;102072.75;;;9.64;100.00
42633;BME280;28261;53.304;-6.284;2023-02-03T00:15:09;102069.19;;;9.65;100.00
42633;BME280;28261;53.304;-6.284;2023-02-03T00:17:18;102067.41;;;9.66;100.00
42633;BME280;28261;53.304;-6.284;2023-02-03T00:19:22;102062.91;;;9.68;100.00
42633;BME280;28261;53.304;-6.284;2023-02-03T00:21:27;102069.13;;;9.67;100.00
42633;BME280;28261;53.304;-6.284;2023-02-03T00:23:35;102065.56;;;9.68;100.00
42633;BME280;28261;53.304;-6.284;2023-02-03T00:25:41;102078.72;;;9.70;100.00
42633;BME280;28261;53.304;-6.284;2023-02-03T00:27:46;102066.34;;;9.70;100.00
42633;BME280;28261;53.304;-6.284;2023-02-03T00:29:53;102065.44;;;9.71;100.00
42633;BME280;28261;53.304;-6.284;2023-02-03T00:31:59;102068.91;;;9.72;100.00
42633;BME280;28261;53.304;-6.284;2023-02-03T00:34:05;102065.44;;;9.71;100.00
42633;BME280;28261;53.304;-6.284;2023-02-03T00:36:14;102067.16;;;9.72;100.00
42633;BME280;28261;53.304;-6.284;2023-02-03T00:38:20;102060.06;;;9.73;100.00
42633;BME280;28261;53.304;-6.284;2023-02-03T00:40:26;102056.56;;;9.72;100.00
42633;BME280;28261;53.304;-6.284;2023-02-03T00:42:35;102063.59;;;9.73;100.00
42633;BME280;28261;53.304;-6.284;2023-02-03T00:44:41;102054.75;;;9.73;100.00
42633;BME280;28261;53.304;-6.284;2023-02-03T00:46:45;102065.44;;;9.71;100.00
42633;BME280;28261;53.304;-6.284;2023-02-03T00:48:52;102055.69;;;9.72;100.00
42633;BME280;28261;53.304;-6.284;2023-02-03T00:50:57;102052.25;;;9.70;100.00
42633;BME280;28261;53.304;-6.284;2023-02-03T00:53:03;102051.41;;;9.69;100.00
42633;BME280;28261;53.304;-6.284;2023-02-03T00:55:08;102057.56;;;9.70;100.00
42633;BME280;28261;53.304;-6.284;2023-02-03T00:57:13;102065.50;;;9.70;100.00
42633;BME280;28261;53.304;-6.284;2023-02-03T00:59:19;102071.63;;;9.70;100.00
42633;BME280;28261;53.304;-6.284;2023-02-03T01:01:23;102070.72;;;9.71;100.00
42633;BME280;28261;53.304;-6.284;2023-02-03T01:03:29;102063.69;;;9.70;100.00
42633;BME280;28261;53.304;-6.284;2023-02-03T01:05:34;102076.94;;;9.70;100.00
42633;BME280;28261;53.304;-6.284;2023-02-03T01:07:38;102070.72;;;9.71;100.00
42633;BME280;28261;53.304;-6.284;2023-02-03T01:09:42;102073.38;;;9.71;100.00
42633;BME280;28261;53.304;-6.284;2023-02-03T01:11:46;102074.28;;;9.70;100.00
42633;BME280;28261;53.304;-6.284;2023-02-03T01:13:52;102081.31;;;9.71;100.00
42633;BME280;28261;53.304;-6.284;2023-02-03T01:15:58;102080.47;;;9.71;100.00
42633;BME280;28261;53.304;-6.284;2023-02-03T01:18:05;102089.31;;;9.70;100.00
42633;BME280;28261;53.304;-6.284;2023-02-03T01:20:11;102099.06;;;9.69;100.00
42633;BME280;28261;53.304;-6.284;2023-02-03T01:22:18;102092.03;;;9.68;100.00
42633;BME280;28261;53.304;-6.284;2023-02-03T01:24:23;102100.91;;;9.67;100.00
42633;BME280;28261;53.304;-6.284;2023-02-03T01:26:30;102101.81;;;9.66;100.00
42633;BME280;28261;53.304;-6.284;2023-02-03T01:28:35;102121.31;;;9.65;100.00
42633;BME280;28261;53.304;-6.284;2023-02-03T01:30:39;102108.91;;;9.65;100.00
42633;BME280;28261;53.304;-6.284;2023-02-03T01:32:47;102115.19;;;9.63;100.00
42633;BME280;28261;53.304;-6.284;2023-02-03T01:34:51;102115.31;;;9.60;100.00
42633;BME280;28261;53.304;-6.284;2023-02-03T01:36:57;102125.09;;;9.58;100.00
42633;BME280;28261;53.304;-6.284;2023-02-03T01:39:03;102125.31;;;9.53;100.00
42633;BME280;28261;53.304;-6.284;2023-02-03T01:41:13;102116.66;;;9.48;100.00
42633;BME280;28261;53.304;-6.284;2023-02-03T01:43:30;102123.88;;;9.44;100.00
42633;BME280;28261;53.304;-6.284;2023-02-03T01:45:34;102123.22;;;9.39;100.00
42633;BME280;28261;53.304;-6.284;2023-02-03T01:47:42;102115.38;;;9.36;100.00
42633;BME280;28261;53.304;-6.284;2023-02-03T01:49:56;102120.72;;;9.35;100.00
42633;BME280;28261;53.304;-6.284;2023-02-03T01:52:04;102120.78;;;9.33;100.00
42633;BME280;28261;53.304;-6.284;2023-02-03T01:54:12;102127.06;;;9.30;100.00
42633;BME280;28261;53.304;-6.284;2023-02-03T01:56:18;102126.28;;;9.28;100.00
42633;BME280;28261;53.304;-6.284;2023-02-03T01:58:27;102138.69;;;9.26;100.00
42633;BME280;28261;53.304;-6.284;2023-02-03T02:00:34;102124.66;;;9.24;100.00
42633;BME280;28261;53.304;-6.284;2023-02-03T02:02:39;102130.81;;;9.25;100.00
42633;BME280;28261;53.304;-6.284;2023-02-03T02:04:52;102127.38;;;9.23;100.00
42633;BME280;28261;53.304;-6.284;2023-02-03T02:06:58;102131.78;;;9.22;100.00
42633;BME280;28261;53.304;-6.284;2023-02-03T02:09:03;102131.84;;;9.21;100.00
42633;BME280;28261;53.304;-6.284;2023-02-03T02:11:10;102134.50;;;9.21;100.00
42633;BME280;28261;53.304;-6.284;2023-02-03T02:13:18;102124.84;;;9.20;100.00
42633;BME280;28261;53.304;-6.284;2023-02-03T02:15:26;102139.00;;;9.19;100.00
42633;BME280;28261;53.304;-6.284;2023-02-03T02:17:50;102130.19;;;9.18;100.00
42633;BME280;28261;53.304;-6.284;2023-02-03T02:20:33;102144.31;;;9.17;100.00
42633;BME280;28261;53.304;-6.284;2023-02-03T02:22:53;102144.38;;;9.15;100.00
42633;BME280;28261;53.304;-6.284;2023-02-03T02:25:43;102147.03;;;9.15;100.00
42633;BME280;28261;53.304;-6.284;2023-02-03T02:30:38;102142.63;;;9.16;100.00
42633;BME280;28261;53.304;-6.284;2023-02-03T02:32:57;102146.97;;;9.17;100.00
42633;BME280;28261;53.304;-6.284;2023-02-03T02:35:08;102150.44;;;9.19;100.00
42633;BME280;28261;53.304;-6.284;2023-02-03T02:37:27;102153.09;;;9.19;100.00
42633;BME280;28261;53.304;-6.284;2023-02-03T02:39:43;102162.81;;;9.19;100.00
42633;BME280;28261;53.304;-6.284;2023-02-03T02:41:57;102157.53;;;9.19;100.00
42633;BME280;28261;53.304;-6.284;2023-02-03T02:44:10;102156.66;;;9.18;100.00
42633;BME280;28261;53.304;-6.284;2023-02-03T02:46:16;102156.66;;;9.18;100.00
42633;BME280;28261;53.304;-6.284;2023-02-03T02:48:28;102161.09;;;9.18;100.00
42633;BME280;28261;53.304;-6.284;2023-02-03T02:50:40;102163.72;;;9.18;100.00
42633;BME280;28261;53.304;-6.284;2023-02-03T02:52:49;102163.72;;;9.18;100.00
42633;BME280;28261;53.304;-6.284;2023-02-03T02:55:00;102163.66;;;9.19;100.00
42633;BME280;28261;53.304;-6.284;2023-02-03T02:57:09;102172.47;;;9.20;100.00
42633;BME280;28261;53.304;-6.284;2023-02-03T02:59:23;102166.25;;;9.21;100.00
42633;BME280;28261;53.304;-6.284;2023-02-03T03:01:28;102173.28;;;9.22;100.00
42633;BME280;28261;53.304;-6.284;2023-02-03T03:03:38;102167.00;;;9.24;100.00
42633;BME280;28261;53.304;-6.284;2023-02-03T03:05:52;102166.88;;;9.27;100.00
42633;BME280;28261;53.304;-6.284;2023-02-03T03:08:04;102158.03;;;9.28;100.00
42633;BME280;28261;53.304;-6.284;2023-02-03T03:10:13;102158.81;;;9.30;100.00
42633;BME280;28261;53.304;-6.284;2023-02-03T03:12:25;102164.94;;;9.32;100.00
42633;BME280;28261;53.304;-6.284;2023-02-03T03:14:33;102159.63;;;9.32;100.00
42633;BME280;28261;53.304;-6.284;2023-02-03T03:16:42;102156.16;;;9.30;100.00
42633;BME280;28261;53.304;-6.284;2023-02-03T03:18:53;102164.03;;;9.32;100.00
42633;BME280;28261;53.304;-6.284;2023-02-03T03:21:00;102160.63;;;9.30;100.00
42633;BME280;28261;53.304;-6.284;2023-02-03T03:23:12;102162.41;;;9.29;100.00
42633;BME280;28261;53.304;-6.284;2023-02-03T03:25:19;102154.47;;;9.29;100.00
42633;BME280;28261;53.304;-6.284;2023-02-03T03:27:27;102157.06;;;9.31;100.00
42633;BME280;28261;53.304;-6.284;2023-02-03T03:29:39;102156.06;;;9.34;100.00
42633;BME280;28261;53.304;-6.284;2023-02-03T03:31:45;102161.31;;;9.35;100.00
42633;BME280;28261;53.304;-6.284;2023-02-03T03:33:51;102159.50;;;9.36;100.00
42633;BME280;28261;53.304;-6.284;2023-02-03T03:36:00;102155.06;;;9.36;100.00
42633;BME280;28261;53.304;-6.284;2023-02-03T03:38:10;102157.69;;;9.38;100.00
42633;BME280;28261;53.304;-6.284;2023-02-03T03:40:21;102159.38;;;9.39;100.00
42633;BME280;28261;53.304;-6.284;2023-02-03T03:42:30;102157.63;;;9.39;100.00
42633;BME280;28261;53.304;-6.284;2023-02-03T03:44:43;102169.91;;;9.40;100.00
42633;BME280;28261;53.304;-6.284;2023-02-03T03:46:51;102176.00;;;9.42;100.00
42633;BME280;28261;53.304;-6.284;2023-02-03T03:49:02;102175.09;;;9.43;100.00
42633;BME280;28261;53.304;-6.284;2023-02-03T03:51:11;102179.44;;;9.44;100.00
42633;BME280;28261;53.304;-6.284;2023-02-03T03:53:17;102177.63;;;9.46;100.00
42633;BME280;28261;53.304;-6.284;2023-02-03T03:55:23;102173.19;;;9.47;100.00
42633;BME280;28261;53.304;-6.284;2023-02-03T03:57:30;102176.63;;;9.49;100.00
42633;BME280;28261;53.304;-6.284;2023-02-03T03:59:40;102176.56;;;9.51;100.00
42633;BME280;28261;53.304;-6.284;2023-02-03T04:01:48;102187.94;;;9.53;100.00
42633;BME280;28261;53.304;-6.284;2023-02-03T04:03:55;102180.91;;;9.53;100.00
42633;BME280;28261;53.304;-6.284;2023-02-03T04:06:05;102183.47;;;9.55;100.00
42633;BME280;28261;53.304;-6.284;2023-02-03T04:08:09;102175.53;;;9.55;100.00
42633;BME280;28261;53.304;-6.284;2023-02-03T04:10:20;102177.25;;;9.56;100.00
42633;BME280;28261;53.304;-6.284;2023-02-03T04:12:24;102175.47;;;9.56;100.00
42633;BME280;28261;53.304;-6.284;2023-02-03T04:14:29;102172.81;;;9.56;100.00
42633;BME280;28261;53.304;-6.284;2023-02-03T04:16:33;102179.03;;;9.55;100.00
42633;BME280;28261;53.304;-6.284;2023-02-03T04:18:37;102171.97;;;9.56;100.00
42633;BME280;28261;53.304;-6.284;2023-02-03T04:20:42;102172.81;;;9.56;100.00
42633;BME280;28261;53.304;-6.284;2023-02-03T04:22:47;102171.09;;;9.55;100.00
42633;BME280;28261;53.304;-6.284;2023-02-03T04:24:52;102172.81;;;9.56;100.00
42633;BME280;28261;53.304;-6.284;2023-02-03T04:26:56;102166.69;;;9.56;100.00
42633;BME280;28261;53.304;-6.284;2023-02-03T04:29:00;102165.84;;;9.54;100.00
42633;BME280;28261;53.304;-6.284;2023-02-03T04:31:05;102163.22;;;9.54;100.00
42633;BME280;28261;53.304;-6.284;2023-02-03T04:33:09;102152.75;;;9.51;100.00
42633;BME280;28261;53.304;-6.284;2023-02-03T04:35:14;102156.31;;;9.49;100.00
42633;BME280;28261;53.304;-6.284;2023-02-03T04:37:18;102160.81;;;9.47;100.00
42633;BME280;28261;53.304;-6.284;2023-02-03T04:39:26;102152.06;;;9.45;100.00
42633;BME280;28261;53.304;-6.284;2023-02-03T04:41:29;102154.78;;;9.44;100.00
42633;BME280;28261;53.304;-6.284;2023-02-03T04:43:33;102159.28;;;9.42;100.00
42633;BME280;28261;53.304;-6.284;2023-02-03T04:45:38;102160.19;;;9.41;100.00
42633;BME280;28261;53.304;-6.284;2023-02-03T04:47:42;102164.56;;;9.42;100.00
42633;BME280;28261;53.304;-6.284;2023-02-03T04:49:46;102164.59;;;9.40;100.00
42633;BME280;28261;53.304;-6.284;2023-02-03T04:51:51;102159.31;;;9.40;100.00
42633;BME280;28261;53.304;-6.284;2023-02-03T04:53:55;102166.41;;;9.40;100.00
42633;BME280;28261;53.304;-6.284;2023-02-03T04:56:00;102157.63;;;9.39;100.00
42633;BME280;28261;53.304;-6.284;2023-02-03T04:58:05;102155.81;;;9.40;100.00
42633;BME280;28261;53.304;-6.284;2023-02-03T05:00:10;102160.19;;;9.41;100.00
42633;BME280;28261;53.304;-6.284;2023-02-03T05:02:15;102168.06;;;9.42;100.00
42633;BME280;28261;53.304;-6.284;2023-02-03T05:04:19;102172.53;;;9.42;100.00
42633;BME280;28261;53.304;-6.284;2023-02-03T05:06:23;102176.00;;;9.42;100.00
42633;BME280;28261;53.304;-6.284;2023-02-03T05:08:28;102172.47;;;9.43;100.00
42633;BME280;28261;53.304;-6.284;2023-02-03T05:10:32;102171.56;;;9.43;100.00
42633;BME280;28261;53.304;-6.284;2023-02-03T05:12:38;102170.66;;;9.44;100.00
42633;BME280;28261;53.304;-6.284;2023-02-03T05:14:42;102168.94;;;9.43;100.00
42633;BME280;28261;53.304;-6.284;2023-02-03T05:16:46;102179.44;;;9.44;100.00
42633;BME280;28261;53.304;-6.284;2023-02-03T05:18:50;102177.75;;;9.43;100.00
42633;BME280;28261;53.304;-6.284;2023-02-03T05:20:54;102173.38;;;9.42;100.00
42633;BME280;28261;53.304;-6.284;2023-02-03T05:22:59;102169.88;;;9.42;100.00
42633;BME280;28261;53.304;-6.284;2023-02-03T05:25:04;102175.09;;;9.43;100.00
42633;BME280;28261;53.304;-6.284;2023-02-03T05:27:08;102176.00;;;9.42;100.00
42633;BME280;28261;53.304;-6.284;2023-02-03T05:29:14;102169.00;;;9.41;100.00
42633;BME280;28261;53.304;-6.284;2023-02-03T05:31:18;102183.09;;;9.42;100.00
42633;BME280;28261;53.304;-6.284;2023-02-03T05:33:22;102185.78;;;9.40;100.00
42633;BME280;28261;53.304;-6.284;2023-02-03T05:35:26;102188.44;;;9.40;100.00
42633;BME280;28261;53.304;-6.284;2023-02-03T05:37:31;102188.44;;;9.40;100.00
42633;BME280;28261;53.304;-6.284;2023-02-03T05:39:35;102198.09;;;9.41;100.00
42633;BME280;28261;53.304;-6.284;2023-02-03T05:41:39;102204.31;;;9.40;100.00
42633;BME280;28261;53.304;-6.284;2023-02-03T05:43:55;102199.03;;;9.40;100.00
42633;BME280;28261;53.304;-6.284;2023-02-03T05:46:00;102201.72;;;9.39;100.00
42633;BME280;28261;53.304;-6.284;2023-02-03T05:48:05;102196.44;;;9.39;100.00
42633;BME280;28261;53.304;-6.284;2023-02-03T05:50:10;102204.38;;;9.39;100.00
42633;BME280;28261;53.304;-6.284;2023-02-03T05:52:14;102209.72;;;9.37;100.00
42633;BME280;28261;53.304;-6.284;2023-02-03T05:54:19;102217.66;;;9.37;100.00
42633;BME280;28261;53.304;-6.284;2023-02-03T05:56:24;102220.25;;;9.39;100.00
42633;BME280;28261;53.304;-6.284;2023-02-03T05:58:28;102234.38;;;9.39;100.00
42633;BME280;28261;53.304;-6.284;2023-02-03T06:00:32;102226.38;;;9.41;100.00
42633;BME280;28261;53.304;-6.284;2023-02-03T06:02:38;102230.78;;;9.40;100.00
42633;BME280;28261;53.304;-6.284;2023-02-03T06:04:42;102236.06;;;9.40;100.00
42633;BME280;28261;53.304;-6.284;2023-02-03T06:06:47;102236.06;;;9.40;100.00
42633;BME280;28261;53.304;-6.284;2023-02-03T06:08:51;102238.72;;;9.40;100.00
42633;BME280;28261;53.304;-6.284;2023-02-03T06:10:58;102250.19;;;9.41;100.00
42633;BME280;28261;53.304;-6.284;2023-02-03T06:13:10;102238.72;;;9.40;100.00
42633;BME280;28261;53.304;-6.284;2023-02-03T06:15:15;102240.50;;;9.40;100.00
42633;BME280;28261;53.304;-6.284;2023-02-03T06:17:19;102244.91;;;9.41;100.00
42633;BME280;28261;53.304;-6.284;2023-02-03T06:19:43;102248.41;;;9.41;100.00
42633;BME280;28261;53.304;-6.284;2023-02-03T06:21:47;102248.41;;;9.41;100.00
42633;BME280;28261;53.304;-6.284;2023-02-03T06:23:51;102242.25;;;9.41;100.00
42633;BME280;28261;53.304;-6.284;2023-02-03T06:25:56;102250.13;;;9.42;100.00
42633;BME280;28261;53.304;-6.284;2023-02-03T06:28:01;102255.41;;;9.42;100.00
42633;BME280;28261;53.304;-6.284;2023-02-03T06:30:06;102262.44;;;9.43;100.00
42633;BME280;28261;53.304;-6.284;2023-02-03T06:32:11;102257.09;;;9.45;100.00
42633;BME280;28261;53.304;-6.284;2023-02-03T06:34:15;102259.75;;;9.45;100.00
42633;BME280;28261;53.304;-6.284;2023-02-03T06:36:21;102265.88;;;9.45;100.00
42633;BME280;28261;53.304;-6.284;2023-02-03T06:38:25;102272.97;;;9.45;100.00
42633;BME280;28261;53.304;-6.284;2023-02-03T06:40:29;102272.97;;;9.45;100.00
42633;BME280;28261;53.304;-6.284;2023-02-03T06:42:34;102281.78;;;9.45;100.00
42633;BME280;28261;53.304;-6.284;2023-02-03T06:44:38;102280.91;;;9.45;100.00
42633;BME280;28261;53.304;-6.284;2023-02-03T06:46:43;102280.03;;;9.44;100.00
42633;BME280;28261;53.304;-6.284;2023-02-03T06:48:46;102295.91;;;9.44;100.00
42633;BME280;28261;53.304;-6.284;2023-02-03T06:50:51;102298.63;;;9.43;100.00
42633;BME280;28261;53.304;-6.284;2023-02-03T06:52:56;102308.34;;;9.42;100.00
42633;BME280;28261;53.304;-6.284;2023-02-03T06:55:00;102305.84;;;9.39;100.00
42633;BME280;28261;53.304;-6.284;2023-02-03T06:57:04;102308.53;;;9.38;100.00
42633;BME280;28261;53.304;-6.284;2023-02-03T06:59:08;102310.38;;;9.36;100.00
42633;BME280;28261;53.304;-6.284;2023-02-03T07:01:13;102301.63;;;9.34;100.00
42633;BME280;28261;53.304;-6.284;2023-02-03T07:03:17;102302.59;;;9.31;100.00
42633;BME280;28261;53.304;-6.284;2023-02-03T07:05:22;102281.50;;;9.29;100.00
42633;BME280;28261;53.304;-6.284;2023-02-03T07:07:26;102290.41;;;9.27;100.00
42633;BME280;28261;53.304;-6.284;2023-02-03T07:09:32;102275.50;;;9.24;100.00
42633;BME280;28261;53.304;-6.284;2023-02-03T07:11:36;102277.38;;;9.21;100.00
42633;BME280;28261;53.304;-6.284;2023-02-03T07:13:41;102282.78;;;9.18;100.00
42633;BME280;28261;53.304;-6.284;2023-02-03T07:15:45;102273.25;;;9.13;100.00
42633;BME280;28261;53.304;-6.284;2023-02-03T07:17:49;102283.00;;;9.11;100.00
42633;BME280;28261;53.304;-6.284;2023-02-03T07:19:56;102286.63;;;9.09;100.00
42633;BME280;28261;53.304;-6.284;2023-02-03T07:22:00;102284.97;;;9.06;100.00
42633;BME280;28261;53.304;-6.284;2023-02-03T07:24:05;102286.78;;;9.04;100.00
42633;BME280;28261;53.304;-6.284;2023-02-03T07:26:11;102286.84;;;9.03;100.00
42633;BME280;28261;53.304;-6.284;2023-02-03T07:28:15;102296.59;;;9.01;100.00
42633;BME280;28261;53.304;-6.284;2023-02-03T07:30:20;102300.25;;;8.98;100.00
42633;BME280;28261;53.304;-6.284;2023-02-03T07:32:24;102307.31;;;8.97;100.00
42633;BME280;28261;53.304;-6.284;2023-02-03T07:34:28;102306.44;;;8.97;100.00
42633;BME280;28261;53.304;-6.284;2023-02-03T07:36:32;102317.03;;;8.97;100.00
42633;BME280;28261;53.304;-6.284;2023-02-03T07:38:36;102316.16;;;8.96;100.00
42633;BME280;28261;53.304;-6.284;2023-02-03T07:40:41;102313.56;;;8.95;100.00
42633;BME280;28261;53.304;-6.284;2023-02-03T07:42:47;102318.84;;;8.95;100.00
42633;BME280;28261;53.304;-6.284;2023-02-03T07:44:52;102332.97;;;8.95;100.00
42633;BME280;28261;53.304;-6.284;2023-02-03T07:46:56;102335.56;;;8.97;100.00
42633;BME280;28261;53.304;-6.284;2023-02-03T07:49:00;102348.72;;;8.98;100.00
42633;BME280;28261;53.304;-6.284;2023-02-03T07:51:07;102339.94;;;8.98;100.00
42633;BME280;28261;53.304;-6.284;2023-02-03T07:53:11;102338.13;;;8.98;100.00
42633;BME280;28261;53.304;-6.284;2023-02-03T07:55:15;102351.34;;;8.98;100.00
42633;BME280;28261;53.304;-6.284;2023-02-03T07:57:19;102361.03;;;9.00;100.00
42633;BME280;28261;53.304;-6.284;2023-02-03T07:59:25;102356.59;;;9.00;100.00
42633;BME280;28261;53.304;-6.284;2023-02-03T08:01:28;102369.81;;;9.00;100.00
42633;BME280;28261;53.304;-6.284;2023-02-03T08:03:33;102373.31;;;9.01;100.00
42633;BME280;28261;53.304;-6.284;2023-02-03T08:05:37;102383.03;;;9.00;100.00
42633;BME280;28261;53.304;-6.284;2023-02-03T08:07:41;102382.19;;;9.00;100.00
42633;BME280;28261;53.304;-6.284;2023-02-03T08:09:47;102388.34;;;9.00;100.00
42633;BME280;28261;53.304;-6.284;2023-02-03T08:11:54;102387.44;;;9.01;100.00
42633;BME280;28261;53.304;-6.284;2023-02-03T08:13:58;102398.81;;;9.03;100.00
42633;BME280;28261;53.304;-6.284;2023-02-03T08:16:05;102396.09;;;9.06;100.00
42633;BME280;28261;53.304;-6.284;2023-02-03T08:18:10;102401.25;;;9.09;100.00
42633;BME280;28261;53.304;-6.284;2023-02-03T08:20:14;102395.84;;;9.12;100.00
42633;BME280;28261;53.304;-6.284;2023-02-03T08:22:19;102401.03;;;9.15;100.00
42633;BME280;28261;53.304;-6.284;2023-02-03T08:24:22;102410.66;;;9.18;100.00
42633;BME280;28261;53.304;-6.284;2023-02-03T08:26:26;102400.84;;;9.22;100.00
42633;BME280;28261;53.304;-6.284;2023-02-03T08:28:31;102412.19;;;9.25;100.00
42633;BME280;28261;53.304;-6.284;2023-02-03T08:30:35;102405.91;;;9.28;100.00
42633;BME280;28261;53.304;-6.284;2023-02-03T08:32:40;102407.59;;;9.30;100.00
42633;BME280;28261;53.304;-6.284;2023-02-03T08:34:50;102411.06;;;9.32;100.00
42633;BME280;28261;53.304;-6.284;2023-02-03T08:36:55;102401.22;;;9.36;100.00
42633;BME280;28261;53.304;-6.284;2023-02-03T08:38:59;102401.13;;;9.39;100.00
42633;BME280;28261;53.304;-6.284;2023-02-03T08:41:08;102394.75;;;9.45;100.00
42633;BME280;28261;53.304;-6.284;2023-02-03T08:43:12;102398.19;;;9.47;100.00
42633;BME280;28261;53.304;-6.284;2023-02-03T08:45:18;102392.94;;;9.45;100.00
42633;BME280;28261;53.304;-6.284;2023-02-03T08:47:22;102392.94;;;9.45;100.00
42633;BME280;28261;53.304;-6.284;2023-02-03T08:49:29;102396.50;;;9.44;100.00
42633;BME280;28261;53.304;-6.284;2023-02-03T08:51:33;102403.66;;;9.42;100.00
42633;BME280;28261;53.304;-6.284;2023-02-03T08:53:37;102413.34;;;9.43;100.00
42633;BME280;28261;53.304;-6.284;2023-02-03T08:55:41;102423.03;;;9.43;100.00
42633;BME280;28261;53.304;-6.284;2023-02-03T08:57:45;102427.41;;;9.44;100.00
42633;BME280;28261;53.304;-6.284;2023-02-03T08:59:49;102430.91;;;9.44;100.00
42633;BME280;28261;53.304;-6.284;2023-02-03T09:01:54;102437.94;;;9.45;100.00
42633;BME280;28261;53.304;-6.284;2023-02-03T09:03:58;102447.75;;;9.43;100.00
42633;BME280;28261;53.304;-6.284;2023-02-03T09:06:06;102448.59;;;9.44;100.00
42633;BME280;28261;53.304;-6.284;2023-02-03T09:08:13;102438.84;;;9.44;100.00
42633;BME280;28261;53.304;-6.284;2023-02-03T09:10:18;102446.78;;;9.46;100.00
42633;BME280;28261;53.304;-6.284;2023-02-03T09:12:22;102440.59;;;9.45;100.00
42633;BME280;28261;53.304;-6.284;2023-02-03T09:14:26;102447.63;;;9.46;100.00
42633;BME280;28261;53.304;-6.284;2023-02-03T09:16:30;102445.88;;;9.45;100.00
42633;BME280;28261;53.304;-6.284;2023-02-03T09:18:34;102445.88;;;9.45;100.00
42633;BME280;28261;53.304;-6.284;2023-02-03T09:20:38;102463.50;;;9.46;100.00
42633;BME280;28261;53.304;-6.284;2023-02-03T09:22:43;102465.25;;;9.47;100.00
42633;BME280;28261;53.304;-6.284;2023-02-03T09:24:48;102468.69;;;9.49;100.00
42633;BME280;28261;53.304;-6.284;2023-02-03T09:26:52;102473.88;;;9.53;100.00
42633;BME280;28261;53.304;-6.284;2023-02-03T09:28:57;102484.38;;;9.56;100.00
42633;BME280;28261;53.304;-6.284;2023-02-03T09:31:02;102479.81;;;9.61;100.00
42633;BME280;28261;53.304;-6.284;2023-02-03T09:33:07;102480.41;;;9.69;100.00
42633;BME280;28261;53.304;-6.284;2023-02-03T09:35:11;102488.94;;;9.77;100.00
42633;BME280;28261;53.304;-6.284;2023-02-03T09:37:15;102474.66;;;9.81;100.00
42633;BME280;28261;53.304;-6.284;2023-02-03T09:39:20;102478.09;;;9.83;100.00
42633;BME280;28261;53.304;-6.284;2023-02-03T09:41:36;102481.56;;;9.86;100.00
42633;BME280;28261;53.304;-6.284;2023-02-03T09:43:50;102484.25;;;9.84;100.00
42633;BME280;28261;53.304;-6.284;2023-02-03T09:46:00;102497.50;;;9.84;100.00
42633;BME280;28261;53.304;-6.284;2023-02-03T09:48:10;102490.44;;;9.85;100.00
42633;BME280;28261;53.304;-6.284;2023-02-03T09:50:19;102502.75;;;9.86;100.00
42633;BME280;28261;53.304;-6.284;2023-02-03T09:52:25;102495.50;;;9.91;100.00
42633;BME280;28261;53.304;-6.284;2023-02-03T09:54:40;102495.28;;;9.97;100.00
42633;BME280;28261;53.304;-6.284;2023-02-03T09:56:46;102483.78;;;9.98;100.00
42633;BME280;28261;53.304;-6.284;2023-02-03T09:58:53;102495.22;;;9.98;99.44
42633;BME280;28261;53.304;-6.284;2023-02-03T10:00:59;102498.84;;;9.96;98.42
42633;BME280;28261;53.304;-6.284;2023-02-03T10:03:07;102494.53;;;9.93;97.94
42633;BME280;28261;53.304;-6.284;2023-02-03T10:05:21;102500.72;;;9.94;98.46
42633;BME280;28261;53.304;-6.284;2023-02-03T10:07:33;102492.59;;;9.98;98.00
42633;BME280;28261;53.304;-6.284;2023-02-03T10:09:50;102494.84;;;10.09;98.33
42633;BME280;28261;53.304;-6.284;2023-02-03T10:12:20;102492.66;;;10.21;96.98
42633;BME280;28261;53.304;-6.284;2023-02-03T10:14:31;102500.38;;;10.27;96.32
42633;BME280;28261;53.304;-6.284;2023-02-03T10:16:56;102510.69;;;10.36;95.88
42633;BME280;28261;53.304;-6.284;2023-02-03T10:19:09;102506.94;;;10.42;95.20
42633;BME280;28261;53.304;-6.284;2023-02-03T10:21:16;102511.94;;;10.49;94.66
42633;BME280;28261;53.304;-6.284;2023-02-03T10:23:27;102513.50;;;10.55;94.37
42633;BME280;28261;53.304;-6.284;2023-02-03T10:25:38;102493.03;;;10.59;93.58
42633;BME280;28261;53.304;-6.284;2023-02-03T10:27:43;102506.91;;;10.65;93.46
42633;BME280;28261;53.304;-6.284;2023-02-03T10:29:52;102504.06;;;10.70;93.27
42633;BME280;28261;53.304;-6.284;2023-02-03T10:31:58;102493.22;;;10.76;93.35
42633;BME280;28261;53.304;-6.284;2023-02-03T10:34:08;102494.84;;;10.80;92.37
42633;BME280;28261;53.304;-6.284;2023-02-03T10:36:18;102504.53;;;10.81;92.17
42633;BME280;28261;53.304;-6.284;2023-02-03T10:38:37;102498.19;;;10.86;91.84
42633;BME280;28261;53.304;-6.284;2023-02-03T10:40:45;102493.72;;;10.86;91.34
42633;BME280;28261;53.304;-6.284;2023-02-03T10:42:52;102494.63;;;10.85;91.07
42633;BME280;28261;53.304;-6.284;2023-02-03T10:45:13;102497.28;;;10.85;91.40
42633;BME280;28261;53.304;-6.284;2023-02-03T10:47:22;102504.28;;;10.88;91.44
42633;BME280;28261;53.304;-6.284;2023-02-03T10:49:30;102504.28;;;10.88;90.59
42633;BME280;28261;53.304;-6.284;2023-02-03T10:51:36;102497.13;;;10.90;90.91
42633;BME280;28261;53.304;-6.284;2023-02-03T10:53:43;102500.47;;;10.95;90.20
42633;BME280;28261;53.304;-6.284;2023-02-03T10:55:51;102501.25;;;10.97;90.51
42633;BME280;28261;53.304;-6.284;2023-02-03T10:58:11;102507.31;;;11.00;89.86